createdAt,value
2023-04-18T00:00:24.493Z,10.72
2023-04-18T00:01:27.617Z,10.69
2023-04-18T00:02:30.732Z,10.70
2023-04-18T00:03:33.896Z,10.68
2023-04-18T00:04:36.975Z,10.77
2023-04-18T00:05:40.414Z,10.83
2023-04-18T00:06:43.693Z,10.69
2023-04-18T00:07:47.234Z,10.67
2023-04-18T00:08:49.943Z,10.68
2023-04-18T00:09:55.427Z,10.60
2023-04-18T00:10:58.187Z,10.66
2023-04-18T00:12:04.310Z,10.69
2023-04-18T00:13:08.572Z,10.71
2023-04-18T00:14:12.174Z,10.70
2023-04-18T00:15:15.117Z,10.79
2023-04-18T00:16:17.803Z,10.66
2023-04-18T00:17:21.334Z,10.61
2023-04-18T00:18:26.751Z,10.57
2023-04-18T00:19:29.524Z,10.48
2023-04-18T00:20:33.076Z,10.46
2023-04-18T00:21:37.414Z,10.47
2023-04-18T00:22:44.236Z,10.45
2023-04-18T00:23:46.885Z,10.51
2023-04-18T00:24:50.569Z,10.48
2023-04-18T00:25:53.221Z,10.40
2023-04-18T00:26:55.860Z,10.42
2023-04-18T00:27:58.727Z,10.45
2023-04-18T00:29:03.324Z,10.46
2023-04-18T00:30:06.973Z,10.50
2023-04-18T00:31:09.658Z,10.53
2023-04-18T00:32:12.244Z,10.51
2023-04-18T00:33:14.868Z,10.47
2023-04-18T00:34:17.621Z,10.47
2023-04-18T00:35:20.346Z,10.46
2023-04-18T00:36:23.389Z,10.46
2023-04-18T00:37:26.306Z,10.48
2023-04-18T00:38:28.988Z,10.44
2023-04-18T00:39:31.841Z,10.44
2023-04-18T00:40:34.856Z,10.45
2023-04-18T00:41:37.432Z,10.42
2023-04-18T00:42:40.194Z,10.35
2023-04-18T00:43:42.760Z,10.37
2023-04-18T00:44:45.387Z,10.41
2023-04-18T00:45:48.146Z,10.43
2023-04-18T00:46:51.428Z,10.51
2023-04-18T00:47:56.408Z,10.45
2023-04-18T00:48:59.129Z,10.46
2023-04-18T00:50:02.382Z,10.56
2023-04-18T00:51:07.794Z,10.56
2023-04-18T00:52:14.451Z,10.55
2023-04-18T00:53:20.397Z,10.46
2023-04-18T00:54:24.881Z,10.41
2023-04-18T00:55:27.618Z,10.46
2023-04-18T00:56:30.770Z,10.43
2023-04-18T00:57:34.645Z,10.46
2023-04-18T00:58:37.441Z,10.49
2023-04-18T00:59:40.761Z,10.53
2023-04-18T01:00:43.956Z,10.51
2023-04-18T01:01:47.229Z,10.45
2023-04-18T01:02:53.467Z,10.45
2023-04-18T01:03:56.449Z,10.49
2023-04-18T01:04:59.645Z,10.46
2023-04-18T01:06:02.384Z,10.52
2023-04-18T01:07:06.221Z,10.55
2023-04-18T01:08:08.987Z,10.52
2023-04-18T01:09:14.159Z,10.53
2023-04-18T01:10:17.465Z,10.72
2023-04-18T01:11:20.588Z,10.66
2023-04-18T01:12:23.290Z,10.66
2023-04-18T01:13:26.115Z,10.66
2023-04-18T01:14:28.709Z,10.57
2023-04-18T01:15:31.381Z,10.52
2023-04-18T01:16:34.414Z,10.48
2023-04-18T01:17:38.643Z,10.46
2023-04-18T01:18:41.308Z,10.46
2023-04-18T01:19:44.568Z,10.48
2023-04-18T01:20:50.891Z,10.48
2023-04-18T01:21:54.459Z,10.45
2023-04-18T01:22:58.197Z,10.48
2023-04-18T01:24:08.973Z,10.47
2023-04-18T01:25:11.951Z,10.44
2023-04-18T01:26:14.674Z,10.43
2023-04-18T01:27:17.913Z,10.47
2023-04-18T01:28:23.019Z,10.42
2023-04-18T01:29:26.515Z,10.43
2023-04-18T01:30:29.246Z,10.44
2023-04-18T01:31:38.953Z,10.46
2023-04-18T01:32:42.036Z,10.38
2023-04-18T01:33:44.777Z,10.41
2023-04-18T01:34:47.846Z,10.45
2023-04-18T01:35:50.667Z,10.45
2023-04-18T01:36:53.193Z,10.43
2023-04-18T01:37:56.221Z,10.43
2023-04-18T01:38:59.804Z,10.45
2023-04-18T01:40:02.662Z,10.44
2023-04-18T01:41:05.432Z,10.42
2023-04-18T01:42:08.249Z,10.50
2023-04-18T01:43:10.935Z,10.49
2023-04-18T01:44:14.056Z,10.52
2023-04-18T01:45:17.784Z,10.52
2023-04-18T01:46:20.750Z,10.50
2023-04-18T01:47:23.843Z,10.48
2023-04-18T01:48:26.697Z,10.45
2023-04-18T01:49:29.375Z,10.48
2023-04-18T01:50:32.135Z,10.54
2023-04-18T01:51:35.447Z,10.58
2023-04-18T01:52:38.401Z,10.59
2023-04-18T01:53:41.101Z,10.58
2023-04-18T01:54:43.788Z,10.54
2023-04-18T01:55:49.380Z,10.55
2023-04-18T01:56:52.128Z,10.60
2023-04-18T01:57:55.169Z,10.61
2023-04-18T01:58:58.048Z,10.65
2023-04-18T02:00:01.908Z,10.65
2023-04-18T02:01:05.147Z,10.62
2023-04-18T02:02:08.299Z,10.58
2023-04-18T02:03:11.196Z,10.59
2023-04-18T02:04:14.273Z,10.60
2023-04-18T02:05:17.189Z,10.60
2023-04-18T02:06:19.810Z,10.64
2023-04-18T02:07:22.676Z,10.59
2023-04-18T02:08:25.673Z,10.66
2023-04-18T02:09:28.613Z,10.62
2023-04-18T02:10:31.730Z,10.67
2023-04-18T02:11:34.712Z,10.63
2023-04-18T02:12:37.497Z,10.66
2023-04-18T02:13:40.431Z,10.64
2023-04-18T02:14:43.054Z,10.59
2023-04-18T02:15:46.188Z,10.58
2023-04-18T02:16:49.381Z,10.67
2023-04-18T02:17:52.229Z,10.63
2023-04-18T02:18:54.913Z,10.57
2023-04-18T02:19:57.974Z,10.54
2023-04-18T02:21:01.184Z,10.53
2023-04-18T02:22:03.931Z,10.52
2023-04-18T02:23:07.219Z,10.48
2023-04-18T02:24:09.830Z,10.48
2023-04-18T02:25:12.510Z,10.57
2023-04-18T02:26:15.425Z,10.59
2023-04-18T02:27:18.764Z,10.57
2023-04-18T02:28:21.411Z,10.60
2023-04-18T02:29:24.745Z,10.58
2023-04-18T02:30:27.493Z,10.58
2023-04-18T02:31:30.668Z,10.57
2023-04-18T02:32:33.458Z,10.55
2023-04-18T02:33:36.269Z,10.68
2023-04-18T02:34:39.576Z,10.72
2023-04-18T02:35:42.304Z,10.65
2023-04-18T02:36:52.292Z,10.63
2023-04-18T02:37:55.104Z,10.61
2023-04-18T02:38:57.932Z,10.53
2023-04-18T02:40:00.645Z,10.55
2023-04-18T02:41:03.300Z,10.60
2023-04-18T02:42:06.068Z,10.62
2023-04-18T02:43:08.714Z,10.61
2023-04-18T02:44:11.544Z,10.63
2023-04-18T02:45:14.412Z,10.66
2023-04-18T02:46:17.815Z,10.64
2023-04-18T02:47:20.773Z,10.61
2023-04-18T02:48:24.168Z,10.60
2023-04-18T02:49:27.093Z,10.62
2023-04-18T02:50:30.200Z,10.68
2023-04-18T02:51:32.962Z,10.58
2023-04-18T02:52:35.797Z,10.55
2023-04-18T02:53:38.409Z,10.57
2023-04-18T02:54:41.130Z,10.52
2023-04-18T02:55:43.855Z,10.58
2023-04-18T02:56:46.609Z,10.63
2023-04-18T02:57:49.400Z,10.70
2023-04-18T02:58:52.424Z,10.73
2023-04-18T02:59:55.079Z,10.70
2023-04-18T03:00:58.357Z,10.65
2023-04-18T03:02:02.059Z,10.68
2023-04-18T03:03:05.734Z,10.68
2023-04-18T03:04:08.832Z,10.78
2023-04-18T03:05:11.507Z,10.74
2023-04-18T03:06:14.176Z,10.60
2023-04-18T03:07:16.955Z,10.56
2023-04-18T03:08:19.636Z,10.54
2023-04-18T03:09:22.498Z,10.53
2023-04-18T03:10:25.154Z,10.44
2023-04-18T03:11:28.027Z,10.44
2023-04-18T03:12:30.835Z,10.52
2023-04-18T03:13:34.996Z,10.55
2023-04-18T03:14:38.262Z,10.47
2023-04-18T03:15:41.080Z,10.48
2023-04-18T03:16:44.288Z,10.61
2023-04-18T03:17:47.027Z,10.60
2023-04-18T03:18:49.748Z,10.53
2023-04-18T03:19:52.409Z,10.47
2023-04-18T03:20:55.165Z,10.59
2023-04-18T03:21:57.823Z,10.48
2023-04-18T03:23:01.010Z,10.58
2023-04-18T03:24:03.806Z,10.47
2023-04-18T03:25:07.321Z,10.31
2023-04-18T03:26:10.208Z,10.29
2023-04-18T03:27:13.441Z,10.19
2023-04-18T03:28:16.129Z,10.16
2023-04-18T03:29:18.882Z,10.10
2023-04-18T03:30:21.712Z,10.03
2023-04-18T03:31:24.661Z,10.01
2023-04-18T03:32:27.768Z,10.12
2023-04-18T03:33:30.562Z,10.08
2023-04-18T03:34:33.291Z,10.11
2023-04-18T03:35:35.966Z,10.27
2023-04-18T03:36:39.325Z,10.22
2023-04-18T03:37:42.111Z,10.12
2023-04-18T03:38:45.354Z,10.08
2023-04-18T03:39:48.077Z,10.02
2023-04-18T03:40:50.794Z,10.15
2023-04-18T03:41:53.849Z,10.19
2023-04-18T03:42:56.584Z,10.12
2023-04-18T03:43:59.239Z,10.05
2023-04-18T03:45:02.114Z,9.99
2023-04-18T03:46:04.821Z,9.89
2023-04-18T03:47:07.520Z,10.05
2023-04-18T03:48:10.394Z,10.12
2023-04-18T03:49:13.127Z,10.04
2023-04-18T03:50:15.933Z,10.00
2023-04-18T03:51:18.611Z,10.01
2023-04-18T03:52:21.276Z,10.06
2023-04-18T03:53:24.172Z,10.01
2023-04-18T03:54:26.859Z,9.98
2023-04-18T03:55:29.546Z,9.92
2023-04-18T03:56:32.426Z,9.93
2023-04-18T03:57:35.236Z,9.89
2023-04-18T03:58:38.129Z,9.88
2023-04-18T03:59:41.243Z,9.89
2023-04-18T04:00:43.928Z,9.93
2023-04-18T04:01:46.591Z,9.95
2023-04-18T04:02:49.569Z,9.89
2023-04-18T04:03:52.370Z,9.83
2023-04-18T04:04:55.223Z,9.78
2023-04-18T04:05:57.958Z,9.67
2023-04-18T04:07:01.108Z,9.66
2023-04-18T04:08:03.936Z,9.77
2023-04-18T04:09:06.831Z,9.77
2023-04-18T04:10:09.866Z,9.82
2023-04-18T04:11:12.721Z,9.79
2023-04-18T04:12:15.442Z,9.72
2023-04-18T04:13:18.070Z,9.81
2023-04-18T04:14:21.672Z,9.76
2023-04-18T04:15:24.264Z,9.71
2023-04-18T04:16:28.297Z,9.67
2023-04-18T04:17:31.066Z,9.66
2023-04-18T04:18:33.922Z,9.76
2023-04-18T04:19:36.525Z,9.75
2023-04-18T04:20:39.106Z,9.68
2023-04-18T04:21:41.737Z,9.74
2023-04-18T04:22:44.385Z,9.72
2023-04-18T04:23:46.917Z,9.70
2023-04-18T04:24:49.514Z,9.67
2023-04-18T04:25:53.228Z,9.67
2023-04-18T04:26:56.503Z,9.66
2023-04-18T04:28:01.774Z,9.59
2023-04-18T04:29:05.306Z,9.63
2023-04-18T04:30:09.555Z,9.62
2023-04-18T04:31:13.668Z,9.57
2023-04-18T04:32:17.102Z,9.58
2023-04-18T04:33:20.956Z,9.62
2023-04-18T04:34:23.626Z,9.56
2023-04-18T04:35:26.965Z,9.69
2023-04-18T04:36:29.750Z,9.62
2023-04-18T04:37:33.676Z,9.59
2023-04-18T04:38:38.635Z,9.61
2023-04-18T04:39:41.562Z,9.69
2023-04-18T04:40:44.285Z,9.76
2023-04-18T04:41:47.476Z,9.75
2023-04-18T04:42:54.166Z,9.84
2023-04-18T04:43:57.050Z,9.76
2023-04-18T04:44:59.697Z,9.72
2023-04-18T04:46:07.792Z,9.76
2023-04-18T04:47:10.693Z,9.73
2023-04-18T04:48:13.491Z,9.74
2023-04-18T04:49:16.233Z,9.74
2023-04-18T04:50:19.297Z,9.72
2023-04-18T04:51:22.148Z,9.76
2023-04-18T04:52:25.566Z,9.68
2023-04-18T04:53:32.624Z,9.72
2023-04-18T04:54:35.567Z,9.67
2023-04-18T04:55:39.002Z,9.71
2023-04-18T04:56:41.631Z,9.76
2023-04-18T04:57:45.133Z,9.75
2023-04-18T04:58:47.857Z,9.74
2023-04-18T04:59:50.791Z,9.82
2023-04-18T05:00:53.981Z,9.74
2023-04-18T05:01:59.737Z,9.64
2023-04-18T05:03:02.678Z,9.71
2023-04-18T05:04:06.013Z,9.82
2023-04-18T05:05:09.075Z,9.83
2023-04-18T05:06:11.716Z,9.78
2023-04-18T05:07:14.863Z,9.78
2023-04-18T05:08:17.585Z,9.73
2023-04-18T05:09:20.958Z,9.75
2023-04-18T05:10:24.140Z,9.75
2023-04-18T05:11:27.213Z,9.76
2023-04-18T05:12:30.070Z,9.81
2023-04-18T05:13:32.905Z,9.84
2023-04-18T05:14:35.754Z,9.85
2023-04-18T05:15:40.196Z,9.80
2023-04-18T05:16:43.094Z,9.70
2023-04-18T05:17:46.044Z,9.72
2023-04-18T05:18:48.857Z,9.74
2023-04-18T05:19:52.655Z,9.72
2023-04-18T05:20:56.062Z,9.75
2023-04-18T05:21:58.713Z,9.71
2023-04-18T05:23:01.354Z,9.75
2023-04-18T05:24:03.994Z,9.80
2023-04-18T05:25:07.148Z,9.74
2023-04-18T05:26:09.829Z,9.83
2023-04-18T05:27:15.880Z,9.91
2023-04-18T05:28:19.887Z,9.87
2023-04-18T05:29:22.536Z,9.89
2023-04-18T05:30:25.334Z,9.91
2023-04-18T05:31:30.306Z,9.85
2023-04-18T05:32:33.554Z,9.79
2023-04-18T05:33:36.312Z,9.83
2023-04-18T05:34:39.566Z,9.95
2023-04-18T05:35:42.293Z,9.98
2023-04-18T05:36:45.546Z,10.03
2023-04-18T05:37:48.346Z,10.08
2023-04-18T05:38:51.808Z,10.04
2023-04-18T05:39:54.447Z,9.95
2023-04-18T05:41:00.399Z,9.92
2023-04-18T05:42:03.756Z,10.05
2023-04-18T05:43:06.452Z,10.11
2023-04-18T05:44:09.329Z,10.11
2023-04-18T05:45:12.150Z,10.12
2023-04-18T05:46:14.942Z,10.15
2023-04-18T05:47:17.748Z,10.12
2023-04-18T05:48:21.563Z,10.20
2023-04-18T05:49:24.208Z,10.28
2023-04-18T05:50:27.186Z,10.33
2023-04-18T05:51:29.956Z,10.35
2023-04-18T05:52:32.823Z,10.43
2023-04-18T05:53:35.355Z,10.53
2023-04-18T05:54:38.041Z,10.66
2023-04-18T05:55:41.237Z,10.73
2023-04-18T05:56:44.421Z,10.74
2023-04-18T05:57:47.299Z,10.71
2023-04-18T05:58:51.510Z,10.64
2023-04-18T05:59:54.359Z,10.70
2023-04-18T06:00:57.289Z,10.83
2023-04-18T06:02:00.041Z,10.91
2023-04-18T06:03:03.247Z,10.88
2023-04-18T06:04:06.536Z,10.97
2023-04-18T06:05:09.781Z,11.01
2023-04-18T06:06:13.507Z,11.03
2023-04-18T06:07:16.171Z,11.21
2023-04-18T06:08:19.059Z,11.28
2023-04-18T06:09:21.712Z,11.38
2023-04-18T06:10:24.692Z,11.46
2023-04-18T06:11:27.707Z,11.50
2023-04-18T06:12:30.856Z,11.45
2023-04-18T06:13:33.588Z,11.46
2023-04-18T06:14:36.185Z,11.42
2023-04-18T06:15:38.887Z,11.40
2023-04-18T06:16:41.686Z,11.51
2023-04-18T06:17:44.905Z,11.54
2023-04-18T06:18:47.987Z,11.53
2023-04-18T06:19:50.842Z,11.58
2023-04-18T06:20:53.514Z,11.58
2023-04-18T06:21:56.015Z,11.65
2023-04-18T06:22:58.626Z,11.81
2023-04-18T06:24:01.759Z,11.81
2023-04-18T06:25:04.646Z,11.83
2023-04-18T06:26:07.577Z,11.71
2023-04-18T06:27:17.701Z,11.84
2023-04-18T06:28:27.247Z,11.88
2023-04-18T06:29:33.603Z,11.88
2023-04-18T06:30:36.775Z,12.04
2023-04-18T06:31:39.701Z,12.05
2023-04-18T06:32:43.801Z,12.03
2023-04-18T06:33:46.463Z,12.14
2023-04-18T06:34:49.071Z,12.10
2023-04-18T06:35:52.058Z,12.17
2023-04-18T06:36:54.666Z,12.22
2023-04-18T06:37:57.414Z,12.32
2023-04-18T06:39:00.414Z,12.51
2023-04-18T06:40:03.107Z,12.40
2023-04-18T06:41:05.984Z,12.47
2023-04-18T06:42:08.702Z,12.51
2023-04-18T06:43:11.454Z,12.44
2023-04-18T06:44:14.041Z,12.49
2023-04-18T06:45:16.688Z,12.52
2023-04-18T06:46:19.645Z,12.59
2023-04-18T06:47:23.174Z,12.63
2023-04-18T06:48:26.166Z,12.67
2023-04-18T06:49:28.911Z,12.67
2023-04-18T06:50:32.100Z,12.69
2023-04-18T06:51:34.946Z,12.60
2023-04-18T06:52:40.866Z,12.57
2023-04-18T06:53:45.892Z,12.58
2023-04-18T06:54:48.498Z,12.62
2023-04-18T06:55:51.286Z,12.58
2023-04-18T06:56:54.197Z,12.53
2023-04-18T06:57:56.955Z,12.52
2023-04-18T06:58:59.961Z,12.65
2023-04-18T07:00:03.874Z,12.68
2023-04-18T07:01:06.932Z,12.67
2023-04-18T07:02:09.835Z,12.79
2023-04-18T07:03:13.691Z,12.86
2023-04-18T07:04:16.763Z,12.87
2023-04-18T07:05:19.653Z,13.00
2023-04-18T07:06:22.371Z,13.17
2023-04-18T07:07:26.671Z,13.28
2023-04-18T07:08:29.366Z,13.32
2023-04-18T07:09:32.661Z,13.24
2023-04-18T07:10:35.501Z,13.31
2023-04-18T07:11:40.704Z,13.54
2023-04-18T07:12:43.623Z,13.68
2023-04-18T07:13:48.568Z,13.71
2023-04-18T07:14:52.006Z,13.78
2023-04-18T07:15:54.807Z,14.04
2023-04-18T07:16:58.090Z,14.02
2023-04-18T07:18:01.016Z,14.15
2023-04-18T07:19:04.314Z,14.21
2023-04-18T07:20:08.040Z,14.39
2023-04-18T07:21:11.099Z,14.40
2023-04-18T07:22:14.103Z,14.30
2023-04-18T07:23:17.012Z,14.55
2023-04-18T07:24:19.806Z,14.72
2023-04-18T07:25:22.535Z,14.65
2023-04-18T07:26:27.015Z,14.56
2023-04-18T07:27:29.930Z,14.65
2023-04-18T07:28:33.189Z,14.65
2023-04-18T07:29:36.462Z,14.68
2023-04-18T07:30:39.256Z,14.59
2023-04-18T07:31:41.984Z,14.62
2023-04-18T07:32:44.953Z,14.52
2023-04-18T07:33:47.670Z,14.64
2023-04-18T07:34:52.157Z,14.81
2023-04-18T07:35:54.889Z,14.92
2023-04-18T07:36:57.968Z,14.64
2023-04-18T07:38:01.401Z,14.60
2023-04-18T07:39:04.061Z,14.55
2023-04-18T07:40:08.434Z,14.61
2023-04-18T07:41:11.410Z,14.83
2023-04-18T07:43:17.005Z,14.43
2023-04-18T07:44:21.735Z,14.45
2023-04-18T07:45:24.409Z,14.67
2023-04-18T07:46:27.330Z,15.02
2023-04-18T07:47:31.150Z,15.13
2023-04-18T07:48:35.051Z,15.34
2023-04-18T07:49:38.536Z,15.33
2023-04-18T07:50:41.727Z,15.35
2023-04-18T07:51:44.508Z,15.56
2023-04-18T07:52:50.679Z,15.74
2023-04-18T07:53:53.352Z,15.64
2023-04-18T07:54:55.968Z,15.64
2023-04-18T07:55:58.754Z,15.48
2023-04-18T07:57:02.045Z,15.47
2023-04-18T07:58:04.808Z,15.17
2023-04-18T07:59:07.473Z,15.08
2023-04-18T08:00:12.563Z,15.10
2023-04-18T08:01:18.441Z,15.12
2023-04-18T08:02:21.823Z,15.28
2023-04-18T08:03:24.890Z,15.19
2023-04-18T08:04:29.942Z,15.34
2023-04-18T08:05:33.624Z,15.21
2023-04-18T08:06:36.415Z,15.17
2023-04-18T08:07:39.098Z,15.09
2023-04-18T08:08:42.198Z,14.99
2023-04-18T08:09:46.057Z,14.93
2023-04-18T08:10:48.844Z,14.75
2023-04-18T08:11:51.704Z,14.83
2023-04-18T08:12:54.342Z,14.75
2023-04-18T08:13:56.985Z,14.54
2023-04-18T08:14:59.575Z,14.31
2023-04-18T08:16:03.119Z,14.72
2023-04-18T08:17:05.775Z,14.47
2023-04-18T08:18:09.641Z,14.71
2023-04-18T08:19:12.554Z,14.90
2023-04-18T08:20:15.750Z,14.67
2023-04-18T08:21:19.542Z,14.51
2023-04-18T08:22:22.299Z,14.45
2023-04-18T08:23:25.140Z,14.67
2023-04-18T08:24:28.334Z,14.65
2023-04-18T08:25:31.874Z,14.72
2023-04-18T08:26:34.538Z,14.65
2023-04-18T08:27:37.231Z,14.89
2023-04-18T08:28:39.918Z,15.12
2023-04-18T08:29:42.570Z,15.17
2023-04-18T08:30:48.951Z,15.46
2023-04-18T08:31:51.768Z,15.57
2023-04-18T08:32:54.401Z,15.58
2023-04-18T08:33:57.002Z,15.73
2023-04-18T08:34:59.697Z,15.75
2023-04-18T08:36:02.367Z,15.69
2023-04-18T08:37:05.174Z,16.08
2023-04-18T08:38:07.908Z,16.29
2023-04-18T08:39:10.763Z,16.63
2023-04-18T08:40:14.008Z,16.73
2023-04-18T08:41:23.544Z,16.62
2023-04-18T08:42:27.309Z,16.55
2023-04-18T08:43:31.567Z,16.76
2023-04-18T08:44:34.551Z,16.61
2023-04-18T08:45:37.237Z,16.67
2023-04-18T08:46:40.185Z,16.88
2023-04-18T08:47:43.240Z,16.79
2023-04-18T08:48:49.555Z,16.65
2023-04-18T08:49:53.785Z,16.57
2023-04-18T08:51:00.284Z,16.68
2023-04-18T08:52:05.184Z,16.59
2023-04-18T08:53:08.007Z,16.70
2023-04-18T08:54:10.816Z,16.42
2023-04-18T08:55:13.733Z,16.68
2023-04-18T08:56:16.899Z,16.73
2023-04-18T08:57:30.523Z,16.61
2023-04-18T08:58:34.413Z,16.66
2023-04-18T08:59:37.049Z,16.95
2023-04-18T09:00:39.776Z,16.91
2023-04-18T09:01:56.683Z,16.81
2023-04-18T09:02:59.822Z,17.32
2023-04-18T09:04:02.572Z,17.61
2023-04-18T09:05:16.660Z,18.23
2023-04-18T09:06:20.376Z,18.53
2023-04-18T09:07:31.648Z,18.78
2023-04-18T09:08:35.645Z,18.59
2023-04-18T09:09:52.081Z,18.65
2023-04-18T09:10:54.847Z,18.70
2023-04-18T09:12:08.269Z,18.31
2023-04-18T09:13:11.421Z,17.85
2023-04-18T09:14:26.205Z,17.64
2023-04-18T09:15:30.044Z,17.69
2023-04-18T09:16:47.386Z,17.68
2023-04-18T09:17:54.259Z,17.24
2023-04-18T09:19:14.007Z,17.65
2023-04-18T09:20:30.980Z,17.79
2023-04-18T09:21:33.670Z,17.80
2023-04-18T09:22:53.146Z,17.78
2023-04-18T09:24:17.734Z,17.94
2023-04-18T09:25:34.645Z,17.52
2023-04-18T09:26:37.849Z,17.40
2023-04-18T09:27:40.577Z,17.48
2023-04-18T09:28:43.430Z,17.09
2023-04-18T09:29:49.579Z,16.90
2023-04-18T09:30:52.879Z,17.06
2023-04-18T09:32:02.321Z,16.94
2023-04-18T09:33:09.717Z,16.89
2023-04-18T09:34:25.188Z,16.92
2023-04-18T09:35:28.427Z,16.44
2023-04-18T09:36:32.656Z,16.32
2023-04-18T09:37:35.691Z,16.30
2023-04-18T09:38:42.027Z,16.20
2023-04-18T09:39:45.203Z,16.14
2023-04-18T09:41:08.344Z,16.21
2023-04-18T09:42:14.366Z,16.17
2023-04-18T09:43:21.630Z,16.32
2023-04-18T09:44:24.856Z,16.75
2023-04-18T09:45:27.753Z,17.18
2023-04-18T09:46:30.845Z,17.44
2023-04-18T09:47:36.681Z,17.50
2023-04-18T09:48:40.593Z,17.64
2023-04-18T09:49:43.243Z,18.14
2023-04-18T09:50:47.255Z,18.32
2023-04-18T09:51:54.364Z,18.32
2023-04-18T09:52:58.626Z,18.27
2023-04-18T09:54:04.631Z,18.23
2023-04-18T09:55:09.798Z,18.24
2023-04-18T09:56:28.096Z,18.08
2023-04-18T09:57:32.873Z,18.02
2023-04-18T09:58:41.333Z,17.93
2023-04-18T10:00:02.318Z,18.06
2023-04-18T10:01:05.518Z,17.94
2023-04-18T10:02:19.067Z,18.41
2023-04-18T10:03:28.907Z,18.56
2023-04-18T10:04:33.010Z,18.69
2023-04-18T10:05:39.049Z,18.65
2023-04-18T10:06:45.087Z,18.63
2023-04-18T10:07:49.809Z,19.07
2023-04-18T10:08:53.925Z,19.02
2023-04-18T10:09:56.683Z,18.94
2023-04-18T10:10:59.551Z,18.61
2023-04-18T10:12:02.915Z,18.75
2023-04-18T10:13:08.673Z,18.61
2023-04-18T10:14:14.440Z,18.56
2023-04-18T10:15:18.282Z,18.45
2023-04-18T10:16:21.188Z,18.53
2023-04-18T10:17:23.901Z,18.65
2023-04-18T10:18:26.915Z,18.43
2023-04-18T10:19:30.422Z,18.29
2023-04-18T10:20:35.399Z,17.84
2023-04-18T10:21:38.515Z,17.91
2023-04-18T10:22:41.214Z,17.94
2023-04-18T10:23:43.886Z,18.04
2023-04-18T10:24:54.411Z,17.69
2023-04-18T10:25:57.304Z,18.18
2023-04-18T10:26:59.885Z,18.23
2023-04-18T10:28:03.249Z,18.30
2023-04-18T10:29:05.870Z,18.62
2023-04-18T10:30:09.331Z,18.37
2023-04-18T10:31:12.255Z,18.50
2023-04-18T10:32:15.200Z,18.37
2023-04-18T10:33:30.351Z,18.37
2023-04-18T10:34:37.497Z,18.03
2023-04-18T10:36:13.899Z,18.14
2023-04-18T10:37:18.115Z,17.99
2023-04-18T10:38:23.766Z,17.90
2023-04-18T10:39:27.064Z,17.96
2023-04-18T10:40:34.475Z,18.23
2023-04-18T10:41:50.604Z,18.15
2023-04-18T10:42:54.137Z,17.80
2023-04-18T10:44:11.904Z,17.74
2023-04-18T10:45:24.991Z,17.58
2023-04-18T10:46:32.442Z,17.33
2023-04-18T10:47:36.026Z,17.12
2023-04-18T10:48:39.403Z,17.32
2023-04-18T10:49:54.354Z,17.20
2023-04-18T10:51:21.022Z,17.15
2023-04-18T10:52:23.854Z,17.30
2023-04-18T10:53:26.382Z,17.40
2023-04-18T10:54:39.313Z,17.60
2023-04-18T10:55:51.842Z,17.92
2023-04-18T10:56:59.990Z,17.90
2023-04-18T10:58:03.628Z,17.92
2023-04-18T10:59:09.412Z,17.97
2023-04-18T11:00:18.094Z,18.29
2023-04-18T11:01:27.486Z,18.19
2023-04-18T11:02:33.621Z,18.21
2023-04-18T11:03:37.354Z,18.22
2023-04-18T11:04:41.405Z,18.26
2023-04-18T11:05:44.603Z,18.11
2023-04-18T11:06:57.429Z,18.02
2023-04-18T11:08:00.113Z,17.81
2023-04-18T11:09:11.083Z,18.00
2023-04-18T11:10:13.660Z,18.13
2023-04-18T11:11:16.532Z,18.14
2023-04-18T11:12:19.266Z,18.29
2023-04-18T11:13:22.281Z,18.31
2023-04-18T11:14:24.969Z,18.48
2023-04-18T11:15:29.702Z,18.59
2023-04-18T11:16:34.639Z,18.84
2023-04-18T11:17:40.513Z,18.92
2023-04-18T11:18:43.304Z,19.05
2023-04-18T11:19:46.407Z,18.57
2023-04-18T11:20:52.519Z,18.59
2023-04-18T11:22:01.168Z,18.58
2023-04-18T11:23:03.884Z,18.44
2023-04-18T11:24:06.649Z,18.39
2023-04-18T11:25:09.628Z,18.53
2023-04-18T11:26:14.493Z,18.42
2023-04-18T11:27:18.513Z,18.33
2023-04-18T11:28:22.215Z,18.19
2023-04-18T11:29:24.955Z,17.83
2023-04-18T11:30:28.906Z,17.90
2023-04-18T11:31:31.756Z,17.71
2023-04-18T11:32:35.753Z,17.61
2023-04-18T11:33:38.527Z,17.56
2023-04-18T11:34:41.736Z,17.28
2023-04-18T11:35:46.246Z,17.18
2023-04-18T11:36:51.152Z,17.15
2023-04-18T11:37:54.908Z,17.09
2023-04-18T11:38:57.561Z,17.27
2023-04-18T11:40:00.323Z,17.26
2023-04-18T11:41:03.271Z,17.19
2023-04-18T11:42:06.117Z,17.26
2023-04-18T11:43:08.859Z,17.39
2023-04-18T11:44:12.046Z,17.34
2023-04-18T11:45:16.003Z,17.18
2023-04-18T11:46:18.771Z,17.22
2023-04-18T11:47:27.756Z,17.24
2023-04-18T11:48:41.465Z,17.38
2023-04-18T11:49:44.334Z,17.41
2023-04-18T11:50:46.973Z,17.45
2023-04-18T11:51:49.718Z,17.17
2023-04-18T11:52:53.960Z,17.10
2023-04-18T11:53:57.010Z,16.98
2023-04-18T11:55:18.654Z,17.06
2023-04-18T11:56:21.474Z,17.08
2023-04-18T11:57:27.698Z,16.99
2023-04-18T11:58:35.048Z,16.96
2023-04-18T11:59:37.816Z,16.83
2023-04-18T12:00:43.940Z,16.77
2023-04-18T12:01:46.757Z,16.99
2023-04-18T12:02:51.349Z,16.68
2023-04-18T12:04:04.880Z,16.78
2023-04-18T12:05:08.567Z,16.74
2023-04-18T12:06:12.119Z,16.79
2023-04-18T12:07:29.388Z,16.96
2023-04-18T12:08:32.827Z,16.97
2023-04-18T12:09:39.163Z,16.94
2023-04-18T12:10:50.836Z,17.07
2023-04-18T12:12:03.996Z,17.04
2023-04-18T12:13:08.892Z,16.99
2023-04-18T12:14:21.959Z,16.98
2023-04-18T12:15:29.458Z,17.15
2023-04-18T12:16:33.642Z,17.00
2023-04-18T12:17:38.395Z,16.78
2023-04-18T12:18:42.075Z,16.74
2023-04-18T12:19:49.667Z,16.77
2023-04-18T12:20:54.590Z,16.69
2023-04-18T12:22:05.404Z,16.56
2023-04-18T12:23:09.001Z,16.70
2023-04-18T12:24:18.452Z,16.63
2023-04-18T12:25:26.630Z,16.71
2023-04-18T12:26:30.252Z,16.74
2023-04-18T12:27:53.582Z,16.80
2023-04-18T12:28:56.344Z,16.94
2023-04-18T12:29:59.326Z,16.97
2023-04-18T12:31:02.961Z,17.01
2023-04-18T12:32:06.317Z,17.09
2023-04-18T12:33:11.744Z,16.97
2023-04-18T12:34:14.707Z,16.99
2023-04-18T12:35:19.539Z,17.13
2023-04-18T12:36:23.607Z,17.35
2023-04-18T12:37:26.339Z,17.36
2023-04-18T12:38:29.153Z,17.35
2023-04-18T12:39:31.911Z,17.59
2023-04-18T12:40:34.765Z,17.74
2023-04-18T12:41:37.546Z,17.77
2023-04-18T12:42:42.164Z,17.78
2023-04-18T12:43:44.906Z,17.83
2023-04-18T12:44:48.051Z,17.89
2023-04-18T12:45:50.920Z,17.81
2023-04-18T12:46:53.645Z,17.97
2023-04-18T12:47:56.598Z,17.90
2023-04-18T12:49:01.002Z,17.71
2023-04-18T12:50:03.851Z,17.88
2023-04-18T12:51:07.289Z,18.01
2023-04-18T12:52:09.937Z,18.03
2023-04-18T12:53:12.854Z,17.96
2023-04-18T12:54:15.675Z,17.76
2023-04-18T12:55:18.604Z,18.03
2023-04-18T12:56:21.686Z,18.10
2023-04-18T12:57:25.528Z,17.88
2023-04-18T12:58:28.260Z,17.87
2023-04-18T12:59:31.055Z,17.87
2023-04-18T13:00:34.035Z,17.66
2023-04-18T13:01:37.178Z,17.49
2023-04-18T13:02:44.489Z,17.31
2023-04-18T13:03:56.487Z,17.27
2023-04-18T13:05:18.254Z,17.11
2023-04-18T13:06:20.963Z,17.08
2023-04-18T13:07:23.875Z,17.28
2023-04-18T13:08:26.518Z,17.24
2023-04-18T13:09:29.227Z,17.16
2023-04-18T13:10:32.620Z,17.17
2023-04-18T13:11:35.288Z,16.91
2023-04-18T13:12:39.177Z,16.93
2023-04-18T13:13:41.822Z,16.96
2023-04-18T13:14:44.533Z,16.92
2023-04-18T13:15:47.147Z,17.04
2023-04-18T13:16:49.772Z,16.96
2023-04-18T13:17:52.527Z,16.77
2023-04-18T13:18:55.108Z,16.57
2023-04-18T13:19:57.925Z,16.49
2023-04-18T13:21:00.632Z,16.62
2023-04-18T13:22:04.773Z,16.65
2023-04-18T13:23:07.623Z,16.61
2023-04-18T13:24:10.307Z,16.63
2023-04-18T13:25:13.079Z,16.68
2023-04-18T13:26:15.696Z,16.80
2023-04-18T13:27:18.694Z,16.92
2023-04-18T13:28:21.521Z,16.87
2023-04-18T13:29:24.590Z,17.00
2023-04-18T13:30:27.741Z,17.10
2023-04-18T13:31:30.691Z,16.84
2023-04-18T13:32:35.277Z,16.78
2023-04-18T13:33:38.009Z,16.85
2023-04-18T13:34:45.897Z,16.90
2023-04-18T13:35:48.761Z,16.90
2023-04-18T13:36:51.528Z,17.17
2023-04-18T13:37:54.512Z,17.61
2023-04-18T13:38:57.323Z,17.97
2023-04-18T13:40:00.224Z,18.18
2023-04-18T13:41:12.158Z,18.48
2023-04-18T13:42:16.387Z,18.78
2023-04-18T13:43:19.301Z,18.82
2023-04-18T13:44:21.957Z,19.34
2023-04-18T13:45:24.702Z,19.44
2023-04-18T13:46:27.820Z,19.52
2023-04-18T13:47:30.564Z,19.61
2023-04-18T13:48:33.338Z,19.94
2023-04-18T13:49:36.607Z,20.15
2023-04-18T13:50:39.454Z,20.59